Time;durP1;ratioP1;P1;durP2;ratioP2;P2;SDS_P1;SDS_P2;PMS_P1;PMS_P2;Temp;Humidity;BMP_temperature;BMP_pressure;BME280_temperature;BME280_humidity;BME280_pressure;Samples;Min_cycle;Max_cycle;Signal;HPM_P1;HPM_P2
2022/10/21 00:00:53;;;;;;;5.13;3.78;;;9.00;84.30;;;;;;5072018;28;20063;-60
2022/10/21 00:03:19;;;;;;;5.40;4.03;;;9.00;84.30;;;;;;5066269;28;20458;-60
2022/10/21 00:05:46;;;;;;;6.20;4.50;;;9.00;84.30;;;;;;5085672;28;20136;-60
2022/10/21 00:08:12;;;;;;;5.25;3.45;;;9.00;83.90;;;;;;5068767;28;20467;-60
2022/10/21 00:10:38;;;;;;;3.60;3.03;;;9.00;84.00;;;;;;5071744;28;20450;-60
2022/10/21 00:13:03;;;;;;;4.57;3.97;;;9.00;83.90;;;;;;5070553;28;20028;-60
2022/10/21 00:15:29;;;;;;;5.25;3.83;;;9.00;83.80;;;;;;5070705;28;20033;-60
2022/10/21 00:17:55;;;;;;;3.83;3.30;;;9.00;83.60;;;;;;5070341;28;20028;-60
2022/10/21 00:20:20;;;;;;;4.10;3.50;;;9.00;83.70;;;;;;5075243;28;20028;-60
2022/10/21 00:22:46;;;;;;;5.07;4.03;;;9.00;83.70;;;;;;5078752;28;20028;-60
2022/10/21 00:25:12;;;;;;;5.70;3.92;;;9.10;83.50;;;;;;5071052;28;20029;-60
2022/10/21 00:27:38;;;;;;;3.80;3.22;;;9.10;83.30;;;;;;5071014;28;20537;-60
2022/10/21 00:30:06;;;;;;;4.45;3.65;;;9.00;83.10;;;;;;5070734;28;20111;-60
2022/10/21 00:32:32;;;;;;;4.30;3.67;;;9.00;82.90;;;;;;5069817;28;20040;-60
2022/10/21 00:34:58;;;;;;;4.63;3.65;;;9.00;82.90;;;;;;5070730;28;20056;-60
2022/10/21 00:37:23;;;;;;;4.80;3.90;;;9.00;82.90;;;;;;5069853;28;20071;-60
2022/10/21 00:39:50;;;;;;;4.35;3.55;;;9.00;82.80;;;;;;5090505;28;20024;-60
2022/10/21 00:42:21;;;;;;;5.15;3.63;;;9.00;82.70;;;;;;5081296;28;20032;-60
2022/10/21 00:45:04;;;;;;;4.68;3.88;;;9.00;82.60;;;;;;5057514;28;20384;-60
2022/10/21 00:47:38;;;;;;;4.50;3.70;;;9.00;82.50;;;;;;5086608;28;20029;-60
2022/10/21 00:50:04;;;;;;;4.35;3.70;;;8.90;82.60;;;;;;5073999;28;20025;-60
2022/10/21 00:52:33;;;;;;;4.57;3.60;;;8.90;82.60;;;;;;5069039;28;20107;-60
2022/10/21 00:55:02;;;;;;;5.22;4.00;;;8.90;82.60;;;;;;5070408;28;20028;-60
2022/10/21 00:57:29;;;;;;;3.78;3.38;;;8.90;82.60;;;;;;5070343;28;20025;-60
2022/10/21 00:59:59;;;;;;;4.32;3.50;;;8.90;82.50;;;;;;5074851;28;20248;-60
2022/10/21 01:02:25;;;;;;;4.20;3.35;;;8.90;82.50;;;;;;5070549;28;20072;-60
2022/10/21 01:04:58;;;;;;;4.68;3.20;;;8.90;82.40;;;;;;5083841;28;20094;-60
2022/10/21 01:07:24;;;;;;;4.65;3.70;;;8.90;82.40;;;;;;5068590;28;20372;-60
2022/10/21 01:09:50;;;;;;;4.40;3.50;;;8.90;82.40;;;;;;5070059;28;20075;-60
2022/10/21 01:12:33;;;;;;;5.00;4.25;;;8.90;82.40;;;;;;5069710;28;20056;-60
2022/10/21 01:15:24;;;;;;;4.00;3.38;;;8.90;82.00;;;;;;5059750;28;20101;-60
2022/10/21 01:18:00;;;;;;;4.27;3.43;;;8.90;82.00;;;;;;5071786;28;20391;-60
2022/10/21 01:20:37;;;;;;;4.43;3.72;;;8.90;82.20;;;;;;5070860;28;20078;-60
2022/10/21 01:23:27;;;;;;;4.93;3.67;;;8.90;82.30;;;;;;5070889;28;20029;-60
2022/10/21 01:26:23;;;;;;;4.97;3.55;;;8.90;82.10;;;;;;5070169;28;20056;-60
2022/10/21 01:29:10;;;;;;;4.97;3.42;;;8.90;82.00;;;;;;5065782;28;20024;-60
2022/10/21 01:31:44;;;;;;;4.53;3.70;;;8.90;82.10;;;;;;5069654;28;20036;-60
2022/10/21 01:34:27;;;;;;;4.60;3.28;;;8.90;82.10;;;;;;5069915;28;20178;-59
2022/10/21 01:37:19;;;;;;;4.70;3.75;;;8.90;82.10;;;;;;5063288;28;20029;-59
2022/10/21 01:40:00;;;;;;;3.75;3.30;;;8.90;82.00;;;;;;5082022;28;20434;-60
2022/10/21 01:42:41;;;;;;;3.92;3.38;;;8.90;82.00;;;;;;5075898;28;20064;-60
2022/10/21 01:45:09;;;;;;;4.32;3.67;;;8.90;81.90;;;;;;5083441;28;20103;-60
2022/10/21 01:48:06;;;;;;;3.88;3.47;;;8.80;81.90;;;;;;5071676;28;20082;-59
2022/10/21 01:50:37;;;;;;;4.35;3.47;;;8.80;81.90;;;;;;5073108;28;20403;-60
2022/10/21 01:53:11;;;;;;;3.90;3.28;;;8.80;82.00;;;;;;5083078;28;20025;-60
2022/10/21 01:55:39;;;;;;;4.60;3.90;;;8.80;82.00;;;;;;5094212;28;20032;-59
2022/10/21 01:58:10;;;;;;;4.32;3.55;;;8.80;81.90;;;;;;5079651;28;20118;-60
2022/10/21 02:00:36;;;;;;;4.70;3.80;;;8.80;81.90;;;;;;5079823;28;20633;-60
2022/10/21 02:03:07;;;;;;;4.97;4.07;;;8.80;82.00;;;;;;5086185;28;20029;-59
2022/10/21 02:05:34;;;;;;;5.70;4.28;;;8.80;82.00;;;;;;5073719;28;20040;-60
2022/10/21 02:08:00;;;;;;;4.68;4.07;;;8.80;81.80;;;;;;5078109;28;20506;-60
2022/10/21 02:10:33;;;;;;;4.80;3.83;;;8.70;81.70;;;;;;5090937;28;20028;-60
2022/10/21 02:13:02;;;;;;;3.63;3.17;;;8.70;81.70;;;;;;5086481;28;20540;-60
2022/10/21 02:15:31;;;;;;;4.68;3.85;;;8.70;82.30;;;;;;5075202;28;20029;-59
2022/10/21 02:18:08;;;;;;;4.80;3.83;;;8.70;81.70;;;;;;5091785;28;20518;-60
2022/10/21 02:20:41;;;;;;;4.32;3.35;;;8.70;81.70;;;;;;5080197;28;20028;-60
2022/10/21 02:23:11;;;;;;;3.53;3.22;;;8.70;81.80;;;;;;5080177;28;20067;-59
2022/10/21 02:25:39;;;;;;;5.53;4.00;;;8.70;81.80;;;;;;5073738;28;20024;-60
2022/10/21 02:28:06;;;;;;;5.15;3.80;;;8.70;81.70;;;;;;5081739;28;20493;-60
2022/10/21 02:30:40;;;;;;;3.75;3.45;;;8.70;81.50;;;;;;5077696;28;20013;-60
2022/10/21 02:33:18;;;;;;;4.03;3.55;;;8.70;81.50;;;;;;5073186;28;20024;-59
2022/10/21 02:36:12;;;;;;;4.50;3.58;;;8.70;81.40;;;;;;5073663;28;20017;-59
2022/10/21 02:38:46;;;;;;;4.80;3.75;;;8.70;81.40;;;;;;5073249;28;20025;-59
2022/10/21 02:41:16;;;;;;;4.68;3.80;;;8.60;82.10;;;;;;5072642;28;20036;-59
2022/10/21 02:43:48;;;;;;;4.30;3.90;;;8.60;81.50;;;;;;5072537;28;20070;-59
2022/10/21 02:46:14;;;;;;;5.65;3.92;;;8.60;81.40;;;;;;5073014;28;20021;-60
2022/10/21 02:48:44;;;;;;;4.50;3.88;;;8.60;81.30;;;;;;5072368;28;20495;-60
2022/10/21 02:51:10;;;;;;;4.50;3.53;;;8.60;81.30;;;;;;5072950;28;20476;-59
2022/10/21 02:53:36;;;;;;;3.97;3.30;;;8.50;81.10;;;;;;5072550;28;20035;-60
2022/10/21 02:56:02;;;;;;;3.70;3.30;;;8.60;81.00;;;;;;5073055;28;20044;-60
2022/10/21 02:58:28;;;;;;;4.75;3.60;;;8.60;81.00;;;;;;5073015;28;20020;-60
2022/10/21 03:00:54;;;;;;;4.15;3.58;;;8.60;80.90;;;;;;5072295;28;20040;-60
2022/10/21 03:03:20;;;;;;;4.75;3.80;;;8.60;80.80;;;;;;5072774;28;20064;-60
2022/10/21 03:05:45;;;;;;;4.50;3.42;;;8.60;80.80;;;;;;5073157;28;20400;-59
2022/10/21 03:08:11;;;;;;;4.20;3.72;;;8.50;80.50;;;;;;5063468;28;20028;-60
2022/10/21 03:10:37;;;;;;;5.18;4.13;;;8.50;80.50;;;;;;5072236;28;20431;-60
2022/10/21 03:13:03;;;;;;;4.50;3.97;;;8.40;80.40;;;;;;5073504;28;20094;-60
2022/10/21 03:15:29;;;;;;;4.28;3.55;;;8.40;80.40;;;;;;5073466;28;20028;-60
2022/10/21 03:17:54;;;;;;;3.92;3.40;;;8.40;80.40;;;;;;5074054;28;20443;-60
2022/10/21 03:20:20;;;;;;;4.70;3.88;;;8.40;80.50;;;;;;5072422;28;20443;-60
2022/10/21 03:22:46;;;;;;;4.70;4.00;;;8.40;80.50;;;;;;5072301;28;20036;-58
2022/10/21 03:25:11;;;;;;;3.92;3.53;;;8.40;80.40;;;;;;5083745;28;20103;-59
2022/10/21 03:27:37;;;;;;;3.92;3.53;;;8.40;80.50;;;;;;5074250;28;20368;-59
2022/10/21 03:30:05;;;;;;;3.28;2.97;;;8.40;80.60;;;;;;5072053;28;20024;-59
2022/10/21 03:32:30;;;;;;;3.72;3.25;;;8.40;80.50;;;;;;5072356;28;20017;-60
2022/10/21 03:34:56;;;;;;;3.75;3.35;;;8.40;80.50;;;;;;5072305;28;20082;-60
2022/10/21 03:37:22;;;;;;;4.10;3.58;;;8.40;80.40;;;;;;5070119;28;20028;-59
2022/10/21 03:39:47;;;;;;;3.83;3.50;;;8.40;80.30;;;;;;5072076;28;20040;-60
2022/10/21 03:42:13;;;;;;;5.22;4.53;;;8.40;80.30;;;;;;5068377;28;20187;-60
2022/10/21 03:44:39;;;;;;;4.57;3.90;;;8.40;80.10;;;;;;5072131;28;20028;-60
2022/10/21 03:47:05;;;;;;;4.28;3.83;;;8.40;80.10;;;;;;5072018;28;20417;-60
2022/10/21 03:49:31;;;;;;;4.70;4.00;;;8.40;80.00;;;;;;5072166;28;20107;-59
2022/10/21 03:51:56;;;;;;;4.55;4.10;;;8.40;79.90;;;;;;5070497;28;20024;-59
2022/10/21 03:54:22;;;;;;;3.50;3.20;;;8.30;79.90;;;;;;5071409;28;20043;-59
2022/10/21 03:56:48;;;;;;;4.15;3.67;;;8.40;80.00;;;;;;5070987;28;20425;-58
2022/10/21 03:59:13;;;;;;;3.90;3.50;;;8.30;79.60;;;;;;5070520;28;20025;-58
2022/10/21 04:01:39;;;;;;;3.38;3.08;;;8.20;79.30;;;;;;5069204;28;20364;-59
2022/10/21 04:04:05;;;;;;;3.03;2.80;;;8.20;79.10;;;;;;5069805;28;20026;-60
2022/10/21 04:06:31;;;;;;;3.08;2.78;;;8.10;79.40;;;;;;5066447;28;20021;-59
2022/10/21 04:08:56;;;;;;;3.85;3.35;;;8.10;79.50;;;;;;5075651;28;20020;-59
2022/10/21 04:11:22;;;;;;;3.97;3.55;;;8.00;79.50;;;;;;5076452;28;20559;-59
2022/10/21 04:13:47;;;;;;;3.60;3.30;;;8.00;79.40;;;;;;5081630;28;20372;-59
2022/10/21 04:16:16;;;;;;;3.45;3.15;;;8.00;79.40;;;;;;5077904;28;20075;-60
2022/10/21 04:18:42;;;;;;;3.83;3.30;;;7.90;79.20;;;;;;5079325;28;20020;-59
2022/10/21 04:21:08;;;;;;;3.45;3.10;;;7.90;79.00;;;;;;5077679;28;20448;-60
2022/10/21 04:23:34;;;;;;;3.10;2.70;;;7.80;78.80;;;;;;5072259;28;20029;-60
2022/10/21 04:26:00;;;;;;;3.65;3.35;;;7.80;78.90;;;;;;5087402;28;20461;-60
2022/10/21 04:28:25;;;;;;;3.67;3.15;;;7.80;78.80;;;;;;5090261;28;20020;-58
2022/10/21 04:30:51;;;;;;;4.53;3.70;;;7.70;78.70;;;;;;5072162;28;20017;-60
2022/10/21 04:33:17;;;;;;;3.50;3.20;;;7.70;78.80;;;;;;5080787;28;20387;-60
2022/10/21 04:35:42;;;;;;;4.20;3.35;;;7.70;78.60;;;;;;5088609;28;20046;-59
2022/10/21 04:38:08;;;;;;;2.95;2.65;;;7.70;78.60;;;;;;5087287;28;20024;-59
2022/10/21 04:40:34;;;;;;;3.13;2.78;;;7.60;78.60;;;;;;5070103;28;20020;-60
2022/10/21 04:42:59;;;;;;;3.80;3.22;;;7.60;78.70;;;;;;5067819;28;20039;-59
2022/10/21 04:45:25;;;;;;;2.80;2.60;;;7.50;78.60;;;;;;5069410;28;20032;-59
2022/10/21 04:47:51;;;;;;;4.28;2.67;;;7.50;78.60;;;;;;5069874;28;20027;-59
2022/10/21 04:50:16;;;;;;;3.22;2.63;;;7.50;78.70;;;;;;5070550;28;20031;-60
2022/10/21 04:52:42;;;;;;;3.03;2.72;;;7.40;78.80;;;;;;5069263;28;20029;-59
2022/10/21 04:55:08;;;;;;;3.20;2.90;;;7.40;78.90;;;;;;5069486;28;20365;-60
2022/10/21 04:57:33;;;;;;;3.00;2.70;;;7.30;79.00;;;;;;5076855;28;20059;-60
2022/10/21 04:59:59;;;;;;;3.85;2.80;;;7.30;79.30;;;;;;5073224;28;20518;-60
2022/10/21 05:02:25;;;;;;;3.03;2.70;;;7.30;79.30;;;;;;5070431;28;20041;-60
2022/10/21 05:04:50;;;;;;;3.05;2.60;;;7.20;79.30;;;;;;5071277;28;20017;-59
2022/10/21 05:07:16;;;;;;;2.90;2.60;;;7.20;79.50;;;;;;5066836;28;20117;-59
2022/10/21 05:09:42;;;;;;;2.95;2.72;;;7.20;79.30;;;;;;5082597;28;20028;-60
2022/10/21 05:12:07;;;;;;;4.43;2.90;;;7.20;79.20;;;;;;5070170;28;20037;-60
2022/10/21 05:14:33;;;;;;;3.15;2.72;;;7.20;79.00;;;;;;5075895;28;20472;-59
2022/10/21 05:16:59;;;;;;;2.97;2.72;;;7.20;79.00;;;;;;5070985;28;20032;-60
2022/10/21 05:19:25;;;;;;;2.70;2.50;;;7.20;78.50;;;;;;5071402;28;20032;-60
2022/10/21 05:21:50;;;;;;;2.40;2.20;;;7.20;78.40;;;;;;5070903;28;20040;-60
2022/10/21 05:24:16;;;;;;;2.47;2.28;;;7.10;78.30;;;;;;5074960;28;20074;-60
2022/10/21 05:26:42;;;;;;;3.20;2.40;;;7.10;78.10;;;;;;5074867;28;20521;-60
2022/10/21 05:29:08;;;;;;;2.45;2.25;;;7.10;78.20;;;;;;5074896;28;20021;-59
2022/10/21 05:31:34;;;;;;;2.80;2.60;;;7.10;78.30;;;;;;5073672;28;20024;-59
2022/10/21 05:34:00;;;;;;;2.70;2.50;;;7.20;78.30;;;;;;5075007;28;20040;-60
2022/10/21 05:36:25;;;;;;;2.70;2.50;;;7.20;78.10;;;;;;5074642;28;20029;-59
2022/10/21 05:38:51;;;;;;;2.45;2.25;;;7.20;77.90;;;;;;5067468;28;20025;-59
2022/10/21 05:41:17;;;;;;;2.97;2.60;;;7.30;78.00;;;;;;5074076;28;20194;-59
2022/10/21 05:43:43;;;;;;;2.80;2.60;;;7.30;78.00;;;;;;5073222;28;20107;-60
2022/10/21 05:46:08;;;;;;;3.03;2.70;;;7.30;77.90;;;;;;5075052;28;20017;-60
2022/10/21 05:48:36;;;;;;;2.58;2.38;;;7.30;78.10;;;;;;5074731;28;20106;-60
2022/10/21 05:51:02;;;;;;;3.08;2.72;;;7.40;78.30;;;;;;5074027;28;20017;-60
2022/10/21 05:53:28;;;;;;;3.28;2.97;;;7.40;78.30;;;;;;5071355;28;20796;-59
2022/10/21 05:56:05;;;;;;;3.55;3.13;;;7.50;78.30;;;;;;5074602;28;20392;-60
2022/10/21 05:58:32;;;;;;;3.00;2.60;;;7.50;78.20;;;;;;5075046;28;20052;-60
2022/10/21 06:00:58;;;;;;;3.28;2.70;;;7.50;78.20;;;;;;5073793;28;20021;-60
2022/10/21 06:03:29;;;;;;;3.38;2.72;;;7.60;78.20;;;;;;5078898;28;20068;-60
2022/10/21 06:05:59;;;;;;;2.83;2.63;;;7.60;78.00;;;;;;5089053;28;20020;-60
2022/10/21 06:08:25;;;;;;;3.03;2.72;;;7.60;78.00;;;;;;5078133;28;20040;-59
2022/10/21 06:11:00;;;;;;;3.65;2.75;;;7.60;78.10;;;;;;5068097;28;20017;-60
2022/10/21 06:13:25;;;;;;;3.22;2.70;;;7.70;78.20;;;;;;5076057;28;20036;-60
2022/10/21 06:15:51;;;;;;;3.63;2.80;;;7.70;78.30;;;;;;5071375;28;20036;-60
2022/10/21 06:18:16;;;;;;;2.90;2.70;;;7.80;78.50;;;;;;5071731;28;20459;-60
2022/10/21 06:20:42;;;;;;;3.97;3.00;;;7.90;78.60;;;;;;5067990;28;20029;-59
2022/10/21 06:23:08;;;;;;;2.97;2.67;;;7.90;78.60;;;;;;5074104;28;20028;-60
2022/10/21 06:25:33;;;;;;;3.42;3.10;;;8.00;78.50;;;;;;5071514;28;20024;-60
2022/10/21 06:27:59;;;;;;;3.60;2.97;;;8.10;78.50;;;;;;5073068;28;20058;-59
2022/10/21 06:30:24;;;;;;;3.28;2.95;;;8.10;78.30;;;;;;5074236;28;20533;-60
2022/10/21 06:32:50;;;;;;;2.72;2.53;;;8.20;78.20;;;;;;5068928;28;20047;-60
2022/10/21 06:35:16;;;;;;;3.33;2.88;;;8.20;78.00;;;;;;5070873;28;20661;-60
2022/10/21 06:37:42;;;;;;;3.35;2.72;;;8.30;78.20;;;;;;5070362;28;20025;-60
2022/10/21 06:40:08;;;;;;;2.95;2.60;;;8.30;77.80;;;;;;5070814;28;20556;-60
2022/10/21 06:42:33;;;;;;;3.05;2.80;;;8.40;77.80;;;;;;5071691;28;20419;-60
2022/10/21 06:44:59;;;;;;;3.28;2.53;;;8.40;77.60;;;;;;5067863;28;20032;-59
2022/10/21 06:47:25;;;;;;;2.95;2.70;;;8.40;77.30;;;;;;5067632;28;20077;-59
2022/10/21 06:49:50;;;;;;;2.90;2.60;;;8.40;77.40;;;;;;5077403;28;20532;-60
2022/10/21 06:52:16;;;;;;;3.25;2.70;;;8.50;78.00;;;;;;5071833;28;20078;-60
2022/10/21 06:54:42;;;;;;;3.58;2.80;;;8.50;77.40;;;;;;5069125;28;20060;-60
2022/10/21 06:57:07;;;;;;;2.72;2.50;;;8.50;77.70;;;;;;5069077;28;20036;-60
2022/10/21 06:59:33;;;;;;;3.30;2.78;;;8.50;76.80;;;;;;5069855;28;20042;-60
2022/10/21 07:01:58;;;;;;;2.50;2.35;;;8.50;76.60;;;;;;5058746;28;20048;-60
2022/10/21 07:04:24;;;;;;;3.00;2.70;;;8.50;76.50;;;;;;5067723;28;20040;-60
2022/10/21 07:06:50;;;;;;;2.78;2.58;;;8.50;76.60;;;;;;5063711;28;20099;-60
2022/10/21 07:09:15;;;;;;;3.20;2.90;;;8.50;76.50;;;;;;5068398;28;20082;-59
2022/10/21 07:11:41;;;;;;;2.90;2.70;;;8.50;76.50;;;;;;5062635;28;20037;-60
2022/10/21 07:14:07;;;;;;;3.05;2.53;;;8.50;76.40;;;;;;5068463;28;20033;-59
2022/10/21 07:16:34;;;;;;;2.80;2.60;;;8.60;76.30;;;;;;5062456;28;20127;-60
2022/10/21 07:19:00;;;;;;;3.30;2.80;;;8.50;76.00;;;;;;5057967;28;20050;-60
2022/10/21 07:21:28;;;;;;;2.60;2.40;;;8.50;75.70;;;;;;5062052;28;20123;-60
2022/10/21 07:23:55;;;;;;;2.63;2.30;;;8.60;75.70;;;;;;5061289;28;20028;-60
2022/10/21 07:26:22;;;;;;;2.58;2.38;;;8.60;75.80;;;;;;5060721;28;20028;-60
2022/10/21 07:28:48;;;;;;;2.80;2.60;;;8.60;75.80;;;;;;5057500;28;20028;-60
2022/10/21 07:31:15;;;;;;;2.10;2.00;;;8.60;75.70;;;;;;5056959;28;20027;-60
2022/10/21 07:33:42;;;;;;;2.70;2.50;;;8.60;75.40;;;;;;5056093;28;20422;-60
2022/10/21 07:36:10;;;;;;;2.72;2.10;;;8.60;75.30;;;;;;5059780;28;20028;-58
2022/10/21 07:38:37;;;;;;;2.95;2.50;;;8.60;75.30;;;;;;5061181;28;20308;-58
2022/10/21 07:41:03;;;;;;;2.53;2.33;;;8.60;75.10;;;;;;5052984;28;20036;-59
2022/10/21 07:43:29;;;;;;;2.30;2.20;;;8.60;75.20;;;;;;5053317;28;20439;-58
2022/10/21 07:45:57;;;;;;;2.33;2.13;;;8.70;75.10;;;;;;5056995;28;20078;-60
2022/10/21 07:48:24;;;;;;;3.33;2.42;;;8.60;75.10;;;;;;5060410;28;20029;-59
2022/10/21 07:50:50;;;;;;;2.80;2.40;;;8.70;75.00;;;;;;5053704;28;20040;-60
2022/10/21 07:53:16;;;;;;;2.80;2.60;;;8.70;74.80;;;;;;5053479;28;20088;-60
2022/10/21 07:55:42;;;;;;;2.10;2.00;;;8.70;74.70;;;;;;5053564;28;20039;-60
2022/10/21 07:58:07;;;;;;;2.85;2.42;;;8.70;74.80;;;;;;5053588;28;20388;-60
2022/10/21 08:00:33;;;;;;;3.50;2.88;;;8.70;74.60;;;;;;5053024;28;20040;-59
2022/10/21 08:02:59;;;;;;;2.60;2.40;;;8.80;74.50;;;;;;5053652;28;20118;-60
2022/10/21 08:05:25;;;;;;;2.60;2.22;;;8.70;74.30;;;;;;5054932;28;20118;-59
2022/10/21 08:07:50;;;;;;;3.08;2.45;;;8.80;74.30;;;;;;5058262;28;20024;-60
2022/10/21 08:10:16;;;;;;;2.50;2.30;;;8.80;74.10;;;;;;5055854;28;20434;-60
2022/10/21 08:12:42;;;;;;;2.05;1.90;;;8.80;74.20;;;;;;5062790;28;20028;-60
2022/10/21 08:15:08;;;;;;;3.05;2.50;;;8.80;74.10;;;;;;5058132;28;20044;-60
2022/10/21 08:17:34;;;;;;;2.78;2.58;;;8.90;74.20;;;;;;5059071;28;20190;-59
2022/10/21 08:19:59;;;;;;;2.53;2.33;;;8.80;73.90;;;;;;5056065;28;20044;-60
2022/10/21 08:22:25;;;;;;;2.70;2.50;;;8.90;73.70;;;;;;5059128;28;21191;-60
2022/10/21 08:24:51;;;;;;;2.30;2.20;;;8.90;73.80;;;;;;5062295;28;20028;-60
2022/10/21 08:27:16;;;;;;;3.10;2.42;;;8.90;73.60;;;;;;5056984;28;20040;-60
2022/10/21 08:29:42;;;;;;;3.10;2.80;;;8.90;73.60;;;;;;5063096;28;20123;-60
2022/10/21 08:32:08;;;;;;;3.28;2.80;;;8.90;73.60;;;;;;5058369;28;20032;-59
2022/10/21 08:34:33;;;;;;;2.85;2.53;;;9.00;73.70;;;;;;5054776;28;20120;-60
2022/10/21 08:36:59;;;;;;;3.28;2.50;;;9.00;73.70;;;;;;5058357;28;20747;-60
2022/10/21 08:39:25;;;;;;;2.25;2.05;;;9.00;73.60;;;;;;5056480;28;20037;-60
2022/10/21 08:42:16;;;;;;;2.47;2.28;;;9.10;73.50;;;;;;5052924;28;20067;-60
2022/10/21 08:44:48;;;;;;;2.28;2.08;;;9.10;73.10;;;;;;5061697;28;20539;-60
2022/10/21 08:47:23;;;;;;;2.30;2.10;;;9.10;73.20;;;;;;5064160;28;20360;-60
2022/10/21 08:50:12;;;;;;;3.05;2.53;;;9.20;73.00;;;;;;5058145;28;20048;-60
2022/10/21 08:52:48;;;;;;;4.00;2.35;;;9.20;72.60;;;;;;5056907;28;20051;-60
2022/10/21 08:55:18;;;;;;;2.05;1.95;;;9.20;72.60;;;;;;5056416;28;20066;-60
2022/10/21 08:57:46;;;;;;;2.13;2.00;;;9.20;72.60;;;;;;5061680;28;20025;-60
2022/10/21 09:00:18;;;;;;;2.28;2.08;;;9.20;72.60;;;;;;5055225;28;20124;-60
2022/10/21 09:03:25;;;;;;;2.33;2.13;;;9.30;72.40;;;;;;5057994;28;20040;-60
2022/10/21 09:06:15;;;;;;;2.00;1.90;;;9.40;72.10;;;;;;5067078;28;20530;-60
2022/10/21 09:09:06;;;;;;;2.08;1.95;;;9.40;72.00;;;;;;5066890;28;20025;-59
2022/10/21 09:12:09;;;;;;;2.15;2.05;;;9.40;71.90;;;;;;5058271;28;20032;-60
2022/10/21 09:14:59;;;;;;;2.53;2.10;;;9.40;71.60;;;;;;5054382;28;20579;-60
2022/10/21 09:17:33;;;;;;;2.70;2.50;;;9.40;71.70;;;;;;5058231;28;20032;-60
2022/10/21 09:20:16;;;;;;;2.40;2.20;;;9.50;71.30;;;;;;5054613;28;20640;-60
2022/10/21 09:23:06;;;;;;;2.60;2.40;;;9.50;71.10;;;;;;5057059;28;20110;-60
2022/10/21 09:25:47;;;;;;;2.20;2.10;;;9.50;70.70;;;;;;5055623;28;20040;-60
2022/10/21 09:28:14;;;;;;;2.33;2.13;;;9.50;70.80;;;;;;5058589;28;20032;-60
2022/10/21 09:30:42;;;;;;;2.28;2.10;;;9.50;70.70;;;;;;5058010;28;20406;-60
2022/10/21 09:33:28;;;;;;;2.30;2.20;;;9.50;70.40;;;;;;5060344;28;20028;-60
2022/10/21 09:36:00;;;;;;;2.35;2.10;;;9.50;70.20;;;;;;5065234;28;20029;-59
2022/10/21 09:38:51;;;;;;;2.35;2.15;;;9.50;70.00;;;;;;5060864;28;21683;-60
2022/10/21 09:41:20;;;;;;;2.55;2.35;;;9.50;69.90;;;;;;5057107;28;22003;-60
2022/10/21 09:43:48;;;;;;;2.30;2.20;;;9.50;70.10;;;;;;5053574;28;20079;-59
2022/10/21 09:46:14;;;;;;;2.35;2.22;;;9.50;70.10;;;;;;5048371;28;20029;-60
2022/10/21 09:48:45;;;;;;;2.42;2.20;;;9.60;69.70;;;;;;5057625;28;20167;-59
2022/10/21 09:51:31;;;;;;;2.50;2.30;;;9.50;69.60;;;;;;5056091;28;20111;-60
2022/10/21 09:54:04;;;;;;;2.58;2.38;;;9.60;69.60;;;;;;5056837;28;20121;-61
2022/10/21 09:56:42;;;;;;;2.58;2.38;;;9.60;69.70;;;;;;5053879;28;20021;-60
2022/10/21 09:59:17;;;;;;;1.98;1.88;;;9.60;69.40;;;;;;5065319;28;20025;-60
2022/10/21 10:01:45;;;;;;;1.98;1.88;;;9.70;69.20;;;;;;5059558;28;20771;-60
2022/10/21 10:04:12;;;;;;;2.58;2.38;;;9.70;69.20;;;;;;5060355;28;20020;-60
2022/10/21 10:06:42;;;;;;;2.03;1.90;;;9.70;69.30;;;;;;5061943;28;21759;-60
2022/10/21 10:09:28;;;;;;;2.60;2.05;;;9.70;69.20;;;;;;5062417;28;20391;-60
2022/10/21 10:12:00;;;;;;;2.20;2.00;;;9.80;69.00;;;;;;5059598;28;20029;-60
2022/10/21 10:14:28;;;;;;;2.30;2.10;;;9.80;69.00;;;;;;5059898;28;20086;-59
2022/10/21 10:16:55;;;;;;;1.95;1.85;;;9.80;68.90;;;;;;5061486;28;20050;-61
2022/10/21 10:19:27;;;;;;;1.98;1.85;;;9.80;68.80;;;;;;5056089;28;20048;-59
2022/10/21 10:22:15;;;;;;;2.00;1.90;;;9.90;68.80;;;;;;5056633;28;20051;-60
2022/10/21 10:24:42;;;;;;;1.98;1.88;;;9.90;68.30;;;;;;5063307;28;20388;-60
2022/10/21 10:27:18;;;;;;;2.65;1.98;;;9.90;68.30;;;;;;5067046;28;20025;-59
2022/10/21 10:29:49;;;;;;;2.10;2.00;;;9.90;68.20;;;;;;5057816;28;20063;-59
2022/10/21 10:32:15;;;;;;;1.83;1.73;;;9.90;68.20;;;;;;5056410;28;20107;-59
2022/10/21 10:35:03;;;;;;;2.15;2.03;;;9.90;68.10;;;;;;5057403;28;20044;-60
2022/10/21 10:37:35;;;;;;;1.95;1.85;;;9.90;68.10;;;;;;5064952;28;20387;-60
2022/10/21 10:40:06;;;;;;;2.50;2.30;;;10.00;68.00;;;;;;5063298;28;20040;-61
2022/10/21 10:42:44;;;;;;;2.03;1.92;;;10.00;67.70;;;;;;5054580;28;20039;-61
2022/10/21 10:45:18;;;;;;;2.30;2.10;;;10.00;67.60;;;;;;5059286;28;20123;-60
2022/10/21 10:47:59;;;;;;;1.90;1.80;;;10.00;67.80;;;;;;5061105;28;20025;-60
2022/10/21 10:50:37;;;;;;;1.80;1.70;;;10.00;67.70;;;;;;5061063;28;21932;-60
2022/10/21 10:53:24;;;;;;;1.90;1.80;;;10.00;67.60;;;;;;5059721;28;20032;-60
2022/10/21 10:56:14;;;;;;;1.88;1.77;;;10.00;67.40;;;;;;5053997;28;20395;-60
2022/10/21 10:58:55;;;;;;;2.55;1.90;;;10.00;67.20;;;;;;5051009;28;20048;-60
2022/10/21 11:01:29;;;;;;;1.83;1.73;;;10.00;67.10;;;;;;5054824;28;20059;-60
2022/10/21 11:04:15;;;;;;;3.15;2.17;;;10.00;67.10;;;;;;5054276;28;20496;-61
2022/10/21 11:06:47;;;;;;;2.97;1.90;;;10.00;67.10;;;;;;5061349;28;20048;-60
2022/10/21 11:09:13;;;;;;;1.90;1.80;;;10.00;67.20;;;;;;5059556;28;20554;-60
2022/10/21 11:11:53;;;;;;;1.77;1.63;;;10.10;67.20;;;;;;5061598;28;20032;-59
2022/10/21 11:14:20;;;;;;;1.90;1.80;;;10.10;67.20;;;;;;5054667;28;20525;-60
2022/10/21 11:17:05;;;;;;;1.70;1.60;;;10.10;67.10;;;;;;5065336;28;20036;-60
2022/10/21 11:19:39;;;;;;;1.52;1.52;;;10.10;66.90;;;;;;5062257;28;20551;-60
2022/10/21 11:22:22;;;;;;;1.70;1.60;;;10.10;67.00;;;;;;5054791;28;20378;-60
2022/10/21 11:24:58;;;;;;;1.65;1.42;;;10.20;67.10;;;;;;5061093;28;20028;-60
2022/10/21 11:27:47;;;;;;;1.50;1.40;;;10.20;66.80;;;;;;5061887;28;20038;-60
2022/10/21 11:30:29;;;;;;;2.00;1.90;;;10.20;66.70;;;;;;5055718;28;20024;-60
2022/10/21 11:33:23;;;;;;;1.60;1.50;;;10.20;66.70;;;;;;5054516;28;20059;-60
2022/10/21 11:36:16;;;;;;;2.10;1.70;;;10.20;66.70;;;;;;5059116;28;20033;-60
2022/10/21 11:39:03;;;;;;;2.10;1.70;;;10.20;66.90;;;;;;5056058;28;20040;-60
2022/10/21 11:41:37;;;;;;;2.00;1.90;;;10.20;66.60;;;;;;5055855;28;20285;-60
2022/10/21 11:44:28;;;;;;;2.17;2.05;;;10.20;66.30;;;;;;5043123;28;20040;-59
2022/10/21 11:47:19;;;;;;;2.13;2.00;;;10.20;66.30;;;;;;5056597;28;20048;-60
2022/10/21 11:49:56;;;;;;;2.90;1.95;;;10.20;66.40;;;;;;5049459;28;20108;-60
2022/10/21 11:53:23;;;;;;;1.80;1.70;;;10.20;66.50;;;;;;5057611;28;20036;-60
2022/10/21 11:56:11;;;;;;;1.50;1.40;;;10.30;66.30;;;;;;5051579;28;20029;-61
2022/10/21 11:59:03;;;;;;;1.95;1.85;;;10.30;66.60;;;;;;5055731;28;20051;-61
2022/10/21 12:01:55;;;;;;;2.22;2.13;;;10.30;66.40;;;;;;5058221;28;20040;-62
2022/10/21 12:04:33;;;;;;;1.83;1.70;;;10.30;66.30;;;;;;5034919;28;20187;-60
2022/10/21 12:07:04;;;;;;;1.80;1.70;;;10.30;66.30;;;;;;5034729;28;21372;-59
2022/10/21 12:09:38;;;;;;;1.42;1.33;;;10.30;66.40;;;;;;5036482;28;20124;-60
2022/10/21 12:12:38;;;;;;;1.58;1.50;;;10.30;67.00;;;;;;5039055;28;20029;-60
2022/10/21 12:15:19;;;;;;;1.98;1.88;;;10.40;66.30;;;;;;5042892;28;20167;-59
2022/10/21 12:17:48;;;;;;;1.40;1.40;;;10.30;66.10;;;;;;5030894;28;20033;-60
2022/10/21 12:20:20;;;;;;;1.80;1.70;;;10.40;66.10;;;;;;5033777;28;20499;-60
2022/10/21 12:22:46;;;;;;;2.30;2.10;;;10.40;66.10;;;;;;5038650;28;20033;-60
2022/10/21 12:25:12;;;;;;;2.40;2.20;;;10.40;66.00;;;;;;5040053;28;20476;-60
2022/10/21 12:27:50;;;;;;;1.83;1.70;;;10.40;65.90;;;;;;5034869;28;20024;-60
2022/10/21 12:30:19;;;;;;;1.92;1.83;;;10.40;65.80;;;;;;5034489;28;20052;-60
2022/10/21 12:33:00;;;;;;;1.92;1.83;;;10.40;66.00;;;;;;5037257;28;20025;-60
2022/10/21 12:35:40;;;;;;;2.15;2.00;;;10.40;66.00;;;;;;5035692;28;20029;-60
2022/10/21 12:38:20;;;;;;;1.90;1.80;;;10.40;66.00;;;;;;5033737;28;20421;-60
2022/10/21 12:40:46;;;;;;;1.88;1.77;;;10.40;66.00;;;;;;5037303;28;20048;-61
2022/10/21 12:43:14;;;;;;;1.63;1.52;;;10.40;65.90;;;;;;5033350;28;21306;-60
2022/10/21 12:45:41;;;;;;;1.73;1.63;;;10.50;65.80;;;;;;5038629;28;20601;-61
2022/10/21 12:48:32;;;;;;;2.10;2.00;;;10.50;65.70;;;;;;5036700;28;20558;-60
2022/10/21 12:51:00;;;;;;;1.90;1.80;;;10.50;65.60;;;;;;5038690;28;20425;-60
2022/10/21 12:53:45;;;;;;;2.00;1.90;;;10.50;65.60;;;;;;5033392;28;20043;-60
2022/10/21 12:56:23;;;;;;;1.95;1.85;;;10.50;65.50;;;;;;5037371;28;20047;-60
2022/10/21 12:59:03;;;;;;;1.60;1.50;;;10.50;65.70;;;;;;5041570;28;20025;-60
2022/10/21 13:01:34;;;;;;;1.60;1.50;;;10.50;65.80;;;;;;5033098;28;20620;-60
2022/10/21 13:04:01;;;;;;;1.98;1.83;;;10.50;65.70;;;;;;5041063;28;20450;-60
2022/10/21 13:06:50;;;;;;;1.83;1.73;;;10.50;65.60;;;;;;5035395;28;21334;-60
2022/10/21 13:09:34;;;;;;;1.73;1.52;;;10.50;65.40;;;;;;5034779;28;20473;-60
2022/10/21 13:12:08;;;;;;;1.85;1.75;;;10.60;65.40;;;;;;5038855;28;20123;-60
2022/10/21 13:14:54;;;;;;;1.65;1.55;;;10.60;65.30;;;;;;5035761;28;20033;-60
2022/10/21 13:17:20;;;;;;;1.92;1.83;;;10.60;65.30;;;;;;5030190;28;20064;-60